Portada
METAR-TAF:

METAR-TAF

Aeroports :

Macas, Equador

latitud: 02-17-57-S, longitud: 078-07-15-W, altitud: 1052 m

Observació

L'informe es va fer fa 52 minuts, a les 18:00 UTC
Vent 8 kt del Nord-Est
Temperatura 24°C
Humitat 74%
Pressió 1014 hPa
Visibilitat 10 km o més
Cel ennuvolat a una alçada de 2000 ft
Cel ennuvolat a una alçada de 30000 ft
xàfecs en les proximitats

METAR: SEMC 261800Z 04008KT 9999 VCSH BKN020 BKN300 24/19 Q1014 RMK A2995

Hora: 13:52 (18:52 UTC)


TAF: manca

Observacions i pronòstics meteorològics de més de 4000 aeroports (METAR i TAF).

Les estacions disponibles són els punts grocs i vermells al mapa.

Posi el ratolí al punt desitjat per veure el nom de l'estació.

Feu clic per veure les observacions i els pronòstics meteorològics.

Per canviar el mapa: feu clic els botons verds amb una creu de color negre per apropar; al botó verd amb un guió per allunyar la imatge; o en les fletxes verdes per a mapes adjacents.


METAR-TAF: